Hanover, Illinois
Current Conditions -  °F | °C
As of 2:35 PM on Saturday 20 Dec 2014 (Local Time) from KSFY Reporting Station
Overcast Overcast  
Wind Chill: 29°   Ceiling: 2400
Heat Index: 33°   Visibility: 7mi
Dew Point: 26°   Wind: 5mph
Humidity: 73%   Direction: 150°SSE
Pressure: 30.21"   Gusts: NA
Location:  42.26°N, 90.28°W
Report Text: KSFY 202035Z AUTO 15004KT 7SM OVC024 01/M03 A3021 RMK AO2 T00081035
Loading
Personal Weather Stations






























Interactive Weather Map New forecast layout! Learn more

10-Day Weather Forecast

Advertisements
Track Severe Weather on mobile